sensor_id;sensor_type;location;lat;lon;timestamp;pressure;altitude;pressure_sealevel;temperature;humidity
76868;BME280;66168;45.478;11.060;2023-12-29T00:01:59;101635.16;;;9.46;72.64
76868;BME280;66168;45.478;11.060;2023-12-29T00:04:26;101633.14;;;9.47;72.84
76868;BME280;66168;45.478;11.060;2023-12-29T00:06:53;101629.63;;;9.47;72.90
76868;BME280;66168;45.478;11.060;2023-12-29T00:09:28;101626.00;;;9.46;72.87
76868;BME280;66168;45.478;11.060;2023-12-29T00:11:58;101625.91;;;9.47;72.82
76868;BME280;66168;45.478;11.060;2023-12-29T00:14:25;101624.19;;;9.48;72.85
76868;BME280;66168;45.478;11.060;2023-12-29T00:16:53;101628.75;;;9.48;72.78
76868;BME280;66168;45.478;11.060;2023-12-29T00:19:24;101623.04;;;9.47;72.48
76868;BME280;66168;45.478;11.060;2023-12-29T00:21:51;101624.86;;;9.50;72.57
76868;BME280;66168;45.478;11.060;2023-12-29T00:24:18;101624.84;;;9.51;72.63
76868;BME280;66168;45.478;11.060;2023-12-29T00:26:45;101625.16;;;9.50;72.61
76868;BME280;66168;45.478;11.060;2023-12-29T00:29:14;101622.27;;;9.51;72.50
76868;BME280;66168;45.478;11.060;2023-12-29T00:31:42;101621.31;;;9.54;72.51
76868;BME280;66168;45.478;11.060;2023-12-29T00:34:09;101620.94;;;9.56;72.46
76868;BME280;66168;45.478;11.060;2023-12-29T00:36:36;101618.10;;;9.58;72.44
76868;BME280;66168;45.478;11.060;2023-12-29T00:39:03;101622.18;;;9.60;72.24
76868;BME280;66168;45.478;11.060;2023-12-29T00:41:32;101621.98;;;9.60;72.24
76868;BME280;66168;45.478;11.060;2023-12-29T00:43:58;101626.86;;;9.61;72.23
76868;BME280;66168;45.478;11.060;2023-12-29T00:46:25;101623.27;;;9.60;72.64
76868;BME280;66168;45.478;11.060;2023-12-29T00:48:52;101620.27;;;9.61;72.61
76868;BME280;66168;45.478;11.060;2023-12-29T00:51:19;101616.47;;;9.62;72.66
76868;BME280;66168;45.478;11.060;2023-12-29T00:53:46;101614.66;;;9.63;72.78
76868;BME280;66168;45.478;11.060;2023-12-29T00:56:13;101608.73;;;9.62;72.81
76868;BME280;66168;45.478;11.060;2023-12-29T00:58:40;101613.00;;;9.63;72.65
76868;BME280;66168;45.478;11.060;2023-12-29T01:01:08;101613.89;;;9.63;72.59
76868;BME280;66168;45.478;11.060;2023-12-29T01:03:38;101612.22;;;9.62;72.55
76868;BME280;66168;45.478;11.060;2023-12-29T01:06:06;101617.96;;;9.58;72.72
76868;BME280;66168;45.478;11.060;2023-12-29T01:08:33;101615.14;;;9.52;72.87
76868;BME280;66168;45.478;11.060;2023-12-29T01:11:00;101619.58;;;9.42;73.26
76868;BME280;66168;45.478;11.060;2023-12-29T01:13:27;101618.89;;;9.39;73.43
76868;BME280;66168;45.478;11.060;2023-12-29T01:15:54;101611.44;;;9.39;73.48
76868;BME280;66168;45.478;11.060;2023-12-29T01:18:21;101605.58;;;9.41;73.43
76868;BME280;66168;45.478;11.060;2023-12-29T01:20:48;101604.36;;;9.44;73.58
76868;BME280;66168;45.478;11.060;2023-12-29T01:23:15;101603.84;;;9.46;73.36
76868;BME280;66168;45.478;11.060;2023-12-29T01:25:43;101603.61;;;9.48;73.13
76868;BME280;66168;45.478;11.060;2023-12-29T01:28:09;101605.47;;;9.51;73.01
76868;BME280;66168;45.478;11.060;2023-12-29T01:30:36;101608.27;;;9.55;72.88
76868;BME280;66168;45.478;11.060;2023-12-29T01:33:04;101602.08;;;9.57;72.65
76868;BME280;66168;45.478;11.060;2023-12-29T01:35:31;101601.80;;;9.58;72.61
76868;BME280;66168;45.478;11.060;2023-12-29T01:37:58;101603.14;;;9.59;72.74
76868;BME280;66168;45.478;11.060;2023-12-29T01:40:25;101600.68;;;9.59;72.77
76868;BME280;66168;45.478;11.060;2023-12-29T01:42:52;101605.48;;;9.59;72.78
76868;BME280;66168;45.478;11.060;2023-12-29T01:45:23;101603.45;;;9.58;72.91
76868;BME280;66168;45.478;11.060;2023-12-29T01:47:51;101602.11;;;9.59;72.79
76868;BME280;66168;45.478;11.060;2023-12-29T01:50:21;101597.98;;;9.60;72.70
76868;BME280;66168;45.478;11.060;2023-12-29T01:52:49;101589.88;;;9.61;72.69
76868;BME280;66168;45.478;11.060;2023-12-29T01:55:18;101587.14;;;9.62;72.69
76868;BME280;66168;45.478;11.060;2023-12-29T01:57:49;101583.78;;;9.64;72.62
76868;BME280;66168;45.478;11.060;2023-12-29T02:00:18;101584.61;;;9.64;72.81
76868;BME280;66168;45.478;11.060;2023-12-29T02:02:46;101582.69;;;9.64;72.79
76868;BME280;66168;45.478;11.060;2023-12-29T02:05:15;101584.34;;;9.63;72.85
76868;BME280;66168;45.478;11.060;2023-12-29T02:07:43;101577.55;;;9.62;72.81
76868;BME280;66168;45.478;11.060;2023-12-29T02:10:11;101576.27;;;9.61;72.90
76868;BME280;66168;45.478;11.060;2023-12-29T02:12:42;101569.98;;;9.60;72.85
76868;BME280;66168;45.478;11.060;2023-12-29T02:15:10;101574.84;;;9.59;72.90
76868;BME280;66168;45.478;11.060;2023-12-29T02:17:45;101575.70;;;9.59;72.83
76868;BME280;66168;45.478;11.060;2023-12-29T02:20:13;101575.76;;;9.57;72.84
76868;BME280;66168;45.478;11.060;2023-12-29T02:22:42;101577.47;;;9.55;72.87
76868;BME280;66168;45.478;11.060;2023-12-29T02:25:09;101569.00;;;9.55;73.06
76868;BME280;66168;45.478;11.060;2023-12-29T02:32:36;101561.00;;;9.51;72.96
76868;BME280;66168;45.478;11.060;2023-12-29T02:35:05;101561.33;;;9.46;73.03
76868;BME280;66168;45.478;11.060;2023-12-29T02:37:36;101561.24;;;9.43;73.27
76868;BME280;66168;45.478;11.060;2023-12-29T02:40:04;101556.40;;;9.40;73.43
76868;BME280;66168;45.478;11.060;2023-12-29T02:42:32;101549.35;;;9.42;73.54
76868;BME280;66168;45.478;11.060;2023-12-29T02:44:58;101543.76;;;9.45;73.58
76868;BME280;66168;45.478;11.060;2023-12-29T02:47:26;101541.06;;;9.47;73.39
76868;BME280;66168;45.478;11.060;2023-12-29T02:49:53;101536.98;;;9.47;73.41
76868;BME280;66168;45.478;11.060;2023-12-29T02:52:21;101535.66;;;9.48;73.49
76868;BME280;66168;45.478;11.060;2023-12-29T02:54:48;101536.48;;;9.49;73.35
76868;BME280;66168;45.478;11.060;2023-12-29T02:57:16;101535.05;;;9.49;73.32
76868;BME280;66168;45.478;11.060;2023-12-29T02:59:43;101531.30;;;9.51;73.12
76868;BME280;66168;45.478;11.060;2023-12-29T03:02:10;101532.43;;;9.52;72.98
76868;BME280;66168;45.478;11.060;2023-12-29T03:04:37;101534.95;;;9.54;73.14
76868;BME280;66168;45.478;11.060;2023-12-29T03:07:04;101534.85;;;9.55;73.02
76868;BME280;66168;45.478;11.060;2023-12-29T03:09:31;101531.96;;;9.55;73.05
76868;BME280;66168;45.478;11.060;2023-12-29T03:11:58;101524.98;;;9.54;73.03
76868;BME280;66168;45.478;11.060;2023-12-29T03:14:25;101525.18;;;9.52;73.03
76868;BME280;66168;45.478;11.060;2023-12-29T03:16:52;101523.58;;;9.50;72.96
76868;BME280;66168;45.478;11.060;2023-12-29T03:19:19;101521.50;;;9.48;72.91
76868;BME280;66168;45.478;11.060;2023-12-29T03:21:46;101518.63;;;9.47;72.94
76868;BME280;66168;45.478;11.060;2023-12-29T03:24:13;101519.58;;;9.46;73.07
76868;BME280;66168;45.478;11.060;2023-12-29T03:26:40;101515.72;;;9.46;73.19
76868;BME280;66168;45.478;11.060;2023-12-29T03:29:08;101507.59;;;9.46;73.14
76868;BME280;66168;45.478;11.060;2023-12-29T03:31:35;101506.45;;;9.45;73.03
76868;BME280;66168;45.478;11.060;2023-12-29T03:34:02;101507.08;;;9.42;73.05
76868;BME280;66168;45.478;11.060;2023-12-29T03:36:31;101511.61;;;9.41;73.06
76868;BME280;66168;45.478;11.060;2023-12-29T03:38:58;101507.67;;;9.39;72.93
76868;BME280;66168;45.478;11.060;2023-12-29T03:41:24;101509.82;;;9.35;72.82
76868;BME280;66168;45.478;11.060;2023-12-29T03:43:51;101504.63;;;9.32;73.07
76868;BME280;66168;45.478;11.060;2023-12-29T03:46:20;101499.84;;;9.31;73.28
76868;BME280;66168;45.478;11.060;2023-12-29T03:48:47;101497.98;;;9.30;73.28
76868;BME280;66168;45.478;11.060;2023-12-29T03:51:15;101498.39;;;9.29;73.32
76868;BME280;66168;45.478;11.060;2023-12-29T03:53:42;101498.17;;;9.31;73.00
76868;BME280;66168;45.478;11.060;2023-12-29T03:56:16;101498.34;;;9.33;73.04
76868;BME280;66168;45.478;11.060;2023-12-29T03:58:44;101490.79;;;9.35;72.98
76868;BME280;66168;45.478;11.060;2023-12-29T04:01:15;101491.77;;;9.34;73.03
76868;BME280;66168;45.478;11.060;2023-12-29T04:03:43;101494.71;;;9.33;72.81
76868;BME280;66168;45.478;11.060;2023-12-29T04:06:12;101496.65;;;9.31;72.82
76868;BME280;66168;45.478;11.060;2023-12-29T04:08:39;101494.34;;;9.29;72.77
76868;BME280;66168;45.478;11.060;2023-12-29T04:11:06;101495.11;;;9.29;72.92
76868;BME280;66168;45.478;11.060;2023-12-29T04:13:34;101493.10;;;9.28;72.89
76868;BME280;66168;45.478;11.060;2023-12-29T04:16:01;101495.41;;;9.27;72.78
76868;BME280;66168;45.478;11.060;2023-12-29T04:18:28;101489.91;;;9.27;72.80
76868;BME280;66168;45.478;11.060;2023-12-29T04:20:56;101482.34;;;9.27;73.04
76868;BME280;66168;45.478;11.060;2023-12-29T04:23:23;101477.70;;;9.28;72.81
76868;BME280;66168;45.478;11.060;2023-12-29T04:25:50;101481.11;;;9.27;72.85
76868;BME280;66168;45.478;11.060;2023-12-29T04:28:16;101484.48;;;9.27;72.92
76868;BME280;66168;45.478;11.060;2023-12-29T04:30:43;101486.73;;;9.25;72.96
76868;BME280;66168;45.478;11.060;2023-12-29T04:33:11;101487.13;;;9.23;73.01
76868;BME280;66168;45.478;11.060;2023-12-29T04:35:38;101485.05;;;9.21;72.99
76868;BME280;66168;45.478;11.060;2023-12-29T04:38:04;101483.54;;;9.18;72.99
76868;BME280;66168;45.478;11.060;2023-12-29T04:40:34;101481.71;;;9.17;73.06
76868;BME280;66168;45.478;11.060;2023-12-29T04:43:01;101484.34;;;9.16;73.12
76868;BME280;66168;45.478;11.060;2023-12-29T04:45:28;101477.25;;;9.14;73.07
76868;BME280;66168;45.478;11.060;2023-12-29T04:47:55;101474.89;;;9.13;73.15
76868;BME280;66168;45.478;11.060;2023-12-29T04:50:26;101476.03;;;9.12;73.17
76868;BME280;66168;45.478;11.060;2023-12-29T04:52:54;101476.17;;;9.10;73.21
76868;BME280;66168;45.478;11.060;2023-12-29T04:55:22;101475.77;;;9.09;73.19
76868;BME280;66168;45.478;11.060;2023-12-29T04:57:48;101475.21;;;9.08;73.05
76868;BME280;66168;45.478;11.060;2023-12-29T05:00:16;101472.76;;;9.05;72.98
76868;BME280;66168;45.478;11.060;2023-12-29T05:02:43;101472.95;;;9.05;72.92
76868;BME280;66168;45.478;11.060;2023-12-29T05:05:09;101472.20;;;9.06;72.86
76868;BME280;66168;45.478;11.060;2023-12-29T05:07:37;101469.84;;;9.05;72.94
76868;BME280;66168;45.478;11.060;2023-12-29T05:10:04;101472.18;;;9.04;72.90
76868;BME280;66168;45.478;11.060;2023-12-29T05:12:31;101469.64;;;9.03;72.72
76868;BME280;66168;45.478;11.060;2023-12-29T05:14:58;101470.42;;;9.02;72.88
76868;BME280;66168;45.478;11.060;2023-12-29T05:17:25;101477.09;;;9.01;72.78
76868;BME280;66168;45.478;11.060;2023-12-29T05:19:52;101476.66;;;8.99;72.89
76868;BME280;66168;45.478;11.060;2023-12-29T05:22:19;101474.15;;;9.00;72.99
76868;BME280;66168;45.478;11.060;2023-12-29T05:24:46;101470.19;;;9.01;73.01
76868;BME280;66168;45.478;11.060;2023-12-29T05:27:13;101467.45;;;9.02;72.82
76868;BME280;66168;45.478;11.060;2023-12-29T05:29:40;101467.16;;;9.03;72.75
76868;BME280;66168;45.478;11.060;2023-12-29T05:32:06;101469.27;;;9.03;72.92
76868;BME280;66168;45.478;11.060;2023-12-29T05:34:34;101466.93;;;9.04;72.83
76868;BME280;66168;45.478;11.060;2023-12-29T05:37:02;101468.73;;;9.03;72.78
76868;BME280;66168;45.478;11.060;2023-12-29T05:39:29;101462.19;;;9.03;72.88
76868;BME280;66168;45.478;11.060;2023-12-29T05:41:56;101458.52;;;9.05;72.91
76868;BME280;66168;45.478;11.060;2023-12-29T05:44:23;101461.85;;;9.05;72.80
76868;BME280;66168;45.478;11.060;2023-12-29T05:46:50;101462.25;;;9.06;72.95
76868;BME280;66168;45.478;11.060;2023-12-29T05:49:17;101466.20;;;9.08;72.74
76868;BME280;66168;45.478;11.060;2023-12-29T05:51:45;101466.13;;;9.10;72.89
76868;BME280;66168;45.478;11.060;2023-12-29T05:54:12;101463.36;;;9.11;72.70
76868;BME280;66168;45.478;11.060;2023-12-29T05:56:39;101462.33;;;9.09;72.75
76868;BME280;66168;45.478;11.060;2023-12-29T05:59:06;101470.65;;;9.09;72.71
76868;BME280;66168;45.478;11.060;2023-12-29T06:01:33;101474.36;;;9.09;72.94
76868;BME280;66168;45.478;11.060;2023-12-29T06:04:00;101473.06;;;9.09;72.85
76868;BME280;66168;45.478;11.060;2023-12-29T06:06:27;101473.42;;;9.06;72.82
76868;BME280;66168;45.478;11.060;2023-12-29T06:08:54;101478.52;;;8.93;73.60
76868;BME280;66168;45.478;11.060;2023-12-29T06:11:21;101476.50;;;8.81;74.09
76868;BME280;66168;45.478;11.060;2023-12-29T06:13:48;101480.92;;;8.72;74.41
76868;BME280;66168;45.478;11.060;2023-12-29T06:16:19;101488.45;;;8.63;74.85
76868;BME280;66168;45.478;11.060;2023-12-29T06:18:47;101485.15;;;8.59;74.85
76868;BME280;66168;45.478;11.060;2023-12-29T06:21:14;101486.44;;;8.58;74.58
76868;BME280;66168;45.478;11.060;2023-12-29T06:23:42;101482.13;;;8.61;74.35
76868;BME280;66168;45.478;11.060;2023-12-29T06:26:16;101482.87;;;8.66;74.31
76868;BME280;66168;45.478;11.060;2023-12-29T06:28:47;101489.59;;;8.71;74.28
76868;BME280;66168;45.478;11.060;2023-12-29T06:31:16;101490.56;;;8.72;74.28
76868;BME280;66168;45.478;11.060;2023-12-29T06:33:44;101488.38;;;8.73;74.29
76868;BME280;66168;45.478;11.060;2023-12-29T06:36:11;101481.41;;;8.74;74.39
76868;BME280;66168;45.478;11.060;2023-12-29T06:38:38;101481.14;;;8.77;74.38
76868;BME280;66168;45.478;11.060;2023-12-29T06:41:05;101476.39;;;8.80;74.22
76868;BME280;66168;45.478;11.060;2023-12-29T06:43:33;101475.21;;;8.83;73.95
76868;BME280;66168;45.478;11.060;2023-12-29T06:46:00;101477.07;;;8.84;74.17
76868;BME280;66168;45.478;11.060;2023-12-29T06:48:27;101482.47;;;8.85;74.05
76868;BME280;66168;45.478;11.060;2023-12-29T06:50:55;101485.29;;;8.83;74.10
76868;BME280;66168;45.478;11.060;2023-12-29T06:53:22;101485.83;;;8.79;74.38
76868;BME280;66168;45.478;11.060;2023-12-29T06:55:49;101486.05;;;8.81;74.50
76868;BME280;66168;45.478;11.060;2023-12-29T06:58:16;101487.46;;;8.85;74.45
76868;BME280;66168;45.478;11.060;2023-12-29T07:00:43;101487.84;;;8.88;74.32
76868;BME280;66168;45.478;11.060;2023-12-29T07:03:14;101486.69;;;8.91;74.37
76868;BME280;66168;45.478;11.060;2023-12-29T07:05:42;101493.95;;;8.96;74.21
76868;BME280;66168;45.478;11.060;2023-12-29T07:08:13;101490.39;;;9.02;74.11
76868;BME280;66168;45.478;11.060;2023-12-29T07:10:40;101494.11;;;9.06;74.09
76868;BME280;66168;45.478;11.060;2023-12-29T07:13:07;101493.77;;;9.09;73.77
76868;BME280;66168;45.478;11.060;2023-12-29T07:15:34;101498.02;;;9.12;73.85
76868;BME280;66168;45.478;11.060;2023-12-29T07:18:01;101502.23;;;9.12;73.68
76868;BME280;66168;45.478;11.060;2023-12-29T07:20:29;101499.54;;;9.07;73.92
76868;BME280;66168;45.478;11.060;2023-12-29T07:22:56;101510.31;;;9.01;73.92
76868;BME280;66168;45.478;11.060;2023-12-29T07:25:23;101511.05;;;8.93;74.43
76868;BME280;66168;45.478;11.060;2023-12-29T07:27:50;101513.23;;;8.83;74.82
76868;BME280;66168;45.478;11.060;2023-12-29T07:30:17;101516.71;;;8.75;75.10
76868;BME280;66168;45.478;11.060;2023-12-29T07:32:44;101523.02;;;8.64;75.57
76868;BME280;66168;45.478;11.060;2023-12-29T07:35:11;101521.46;;;8.56;75.76
76868;BME280;66168;45.478;11.060;2023-12-29T07:37:42;101523.47;;;8.57;75.75
76868;BME280;66168;45.478;11.060;2023-12-29T07:40:13;101524.32;;;8.61;75.64
76868;BME280;66168;45.478;11.060;2023-12-29T07:42:40;101520.67;;;8.70;75.56
76868;BME280;66168;45.478;11.060;2023-12-29T07:45:08;101521.78;;;8.79;75.28
76868;BME280;66168;45.478;11.060;2023-12-29T07:47:36;101526.16;;;8.85;75.13
76868;BME280;66168;45.478;11.060;2023-12-29T07:50:04;101531.81;;;8.87;74.94
76868;BME280;66168;45.478;11.060;2023-12-29T07:52:32;101534.94;;;8.89;74.82
76868;BME280;66168;45.478;11.060;2023-12-29T07:54:59;101536.80;;;8.94;74.80
76868;BME280;66168;45.478;11.060;2023-12-29T07:57:26;101535.30;;;9.00;74.57
76868;BME280;66168;45.478;11.060;2023-12-29T07:59:53;101537.10;;;9.06;74.36
76868;BME280;66168;45.478;11.060;2023-12-29T08:02:20;101533.48;;;9.10;74.23
76868;BME280;66168;45.478;11.060;2023-12-29T08:04:47;101535.73;;;9.14;74.24
76868;BME280;66168;45.478;11.060;2023-12-29T08:07:15;101537.54;;;9.20;74.21
76868;BME280;66168;45.478;11.060;2023-12-29T08:09:42;101538.45;;;9.23;73.93
76868;BME280;66168;45.478;11.060;2023-12-29T08:12:09;101538.10;;;9.25;74.13
76868;BME280;66168;45.478;11.060;2023-12-29T08:14:36;101539.34;;;9.27;74.08
76868;BME280;66168;45.478;11.060;2023-12-29T08:17:03;101541.22;;;9.29;74.03
76868;BME280;66168;45.478;11.060;2023-12-29T08:19:30;101544.86;;;9.32;73.81
76868;BME280;66168;45.478;11.060;2023-12-29T08:21:57;101541.17;;;9.34;73.71
76868;BME280;66168;45.478;11.060;2023-12-29T08:24:24;101542.25;;;9.39;73.62
76868;BME280;66168;45.478;11.060;2023-12-29T08:26:51;101543.22;;;9.43;73.60
76868;BME280;66168;45.478;11.060;2023-12-29T08:29:18;101546.20;;;9.47;73.67
76868;BME280;66168;45.478;11.060;2023-12-29T08:31:46;101548.28;;;9.51;73.36
76868;BME280;66168;45.478;11.060;2023-12-29T08:34:14;101546.51;;;9.55;73.21
76868;BME280;66168;45.478;11.060;2023-12-29T08:36:42;101545.90;;;9.58;73.12
76868;BME280;66168;45.478;11.060;2023-12-29T08:39:09;101546.21;;;9.58;73.03
76868;BME280;66168;45.478;11.060;2023-12-29T08:41:36;101547.94;;;9.59;73.27
76868;BME280;66168;45.478;11.060;2023-12-29T08:44:03;101553.59;;;9.61;73.18
76868;BME280;66168;45.478;11.060;2023-12-29T08:46:30;101562.00;;;9.58;73.15
76868;BME280;66168;45.478;11.060;2023-12-29T08:48:57;101568.39;;;9.46;73.83
76868;BME280;66168;45.478;11.060;2023-12-29T08:51:24;101576.66;;;9.36;74.32
76868;BME280;66168;45.478;11.060;2023-12-29T08:53:51;101574.23;;;9.30;74.53
76868;BME280;66168;45.478;11.060;2023-12-29T08:56:18;101574.32;;;9.29;74.66
76868;BME280;66168;45.478;11.060;2023-12-29T08:58:45;101574.08;;;9.32;74.55
76868;BME280;66168;45.478;11.060;2023-12-29T09:01:11;101578.81;;;9.37;74.44
76868;BME280;66168;45.478;11.060;2023-12-29T09:03:38;101578.08;;;9.41;74.23
76868;BME280;66168;45.478;11.060;2023-12-29T09:06:06;101580.27;;;9.43;74.27
76868;BME280;66168;45.478;11.060;2023-12-29T09:08:35;101579.94;;;9.46;74.23
76868;BME280;66168;45.478;11.060;2023-12-29T09:11:02;101583.14;;;9.48;74.19
76868;BME280;66168;45.478;11.060;2023-12-29T09:13:29;101586.63;;;9.47;74.23
76868;BME280;66168;45.478;11.060;2023-12-29T09:15:56;101592.07;;;9.47;74.25
76868;BME280;66168;45.478;11.060;2023-12-29T09:18:24;101590.08;;;9.47;74.11
76868;BME280;66168;45.478;11.060;2023-12-29T09:20:53;101595.71;;;9.49;74.11
76868;BME280;66168;45.478;11.060;2023-12-29T09:23:20;101594.50;;;9.53;74.01
76868;BME280;66168;45.478;11.060;2023-12-29T09:25:50;101596.95;;;9.57;73.91
76868;BME280;66168;45.478;11.060;2023-12-29T09:28:17;101597.95;;;9.62;73.65
76868;BME280;66168;45.478;11.060;2023-12-29T09:30:44;101591.64;;;9.61;73.56
76868;BME280;66168;45.478;11.060;2023-12-29T09:33:11;101597.45;;;9.67;73.61
76868;BME280;66168;45.478;11.060;2023-12-29T09:35:39;101601.23;;;9.70;73.43
76868;BME280;66168;45.478;11.060;2023-12-29T09:38:06;101599.02;;;9.71;73.43
76868;BME280;66168;45.478;11.060;2023-12-29T09:40:33;101598.47;;;9.74;73.43
76868;BME280;66168;45.478;11.060;2023-12-29T09:43:02;101600.14;;;9.75;73.16
76868;BME280;66168;45.478;11.060;2023-12-29T09:45:32;101598.05;;;9.75;73.17
76868;BME280;66168;45.478;11.060;2023-12-29T09:48:01;101596.33;;;9.78;73.12
76868;BME280;66168;45.478;11.060;2023-12-29T09:50:31;101596.63;;;9.79;73.04
76868;BME280;66168;45.478;11.060;2023-12-29T09:53:00;101593.79;;;9.77;72.80
76868;BME280;66168;45.478;11.060;2023-12-29T09:55:28;101594.34;;;9.71;73.01
76868;BME280;66168;45.478;11.060;2023-12-29T09:57:56;101594.34;;;9.64;73.58
76868;BME280;66168;45.478;11.060;2023-12-29T10:00:27;101596.27;;;9.59;73.83
76868;BME280;66168;45.478;11.060;2023-12-29T10:02:55;101596.24;;;9.59;73.90
76868;BME280;66168;45.478;11.060;2023-12-29T10:05:23;101596.45;;;9.61;73.75
76868;BME280;66168;45.478;11.060;2023-12-29T10:07:52;101597.46;;;9.59;74.26
76868;BME280;66168;45.478;11.060;2023-12-29T10:10:20;101596.54;;;9.54;74.32
76868;BME280;66168;45.478;11.060;2023-12-29T10:12:51;101589.16;;;9.51;74.28
76868;BME280;66168;45.478;11.060;2023-12-29T10:15:34;101588.86;;;9.53;74.32
76868;BME280;66168;45.478;11.060;2023-12-29T10:18:28;101583.77;;;9.60;73.96
76868;BME280;66168;45.478;11.060;2023-12-29T10:21:17;101576.13;;;9.67;73.73
76868;BME280;66168;45.478;11.060;2023-12-29T10:23:54;101572.91;;;9.75;73.70
76868;BME280;66168;45.478;11.060;2023-12-29T10:26:25;101571.36;;;9.82;73.56
76868;BME280;66168;45.478;11.060;2023-12-29T10:28:52;101567.64;;;9.87;73.50
76868;BME280;66168;45.478;11.060;2023-12-29T10:31:19;101569.43;;;9.92;73.12
76868;BME280;66168;45.478;11.060;2023-12-29T10:33:46;101573.06;;;9.93;73.22
76868;BME280;66168;45.478;11.060;2023-12-29T10:36:18;101572.08;;;9.87;73.42
76868;BME280;66168;45.478;11.060;2023-12-29T10:38:44;101570.67;;;9.83;73.37
76868;BME280;66168;45.478;11.060;2023-12-29T10:41:16;101570.64;;;9.75;73.29
76868;BME280;66168;45.478;11.060;2023-12-29T10:43:44;101562.98;;;9.72;73.67
76868;BME280;66168;45.478;11.060;2023-12-29T10:46:19;101556.94;;;9.75;73.82
76868;BME280;66168;45.478;11.060;2023-12-29T10:48:48;101550.41;;;9.82;73.68
76868;BME280;66168;45.478;11.060;2023-12-29T10:51:15;101547.68;;;9.90;73.45
76868;BME280;66168;45.478;11.060;2023-12-29T10:53:54;101542.23;;;9.95;73.31
76868;BME280;66168;45.478;11.060;2023-12-29T10:56:23;101547.17;;;9.97;73.14
76868;BME280;66168;45.478;11.060;2023-12-29T10:58:59;101546.63;;;9.97;73.35
76868;BME280;66168;45.478;11.060;2023-12-29T11:01:26;101540.86;;;9.95;73.50
76868;BME280;66168;45.478;11.060;2023-12-29T11:03:58;101539.52;;;9.89;73.43
76868;BME280;66168;45.478;11.060;2023-12-29T11:06:27;101531.84;;;9.82;73.77
76868;BME280;66168;45.478;11.060;2023-12-29T11:08:56;101534.80;;;9.81;74.00
76868;BME280;66168;45.478;11.060;2023-12-29T11:11:24;101534.09;;;9.81;74.11
76868;BME280;66168;45.478;11.060;2023-12-29T11:13:53;101533.94;;;9.79;74.25
76868;BME280;66168;45.478;11.060;2023-12-29T11:16:21;101529.33;;;9.77;73.63
76868;BME280;66168;45.478;11.060;2023-12-29T11:18:49;101525.91;;;9.74;73.64
76868;BME280;66168;45.478;11.060;2023-12-29T11:21:21;101525.36;;;9.72;73.75
76868;BME280;66168;45.478;11.060;2023-12-29T11:23:49;101528.92;;;9.72;73.83
76868;BME280;66168;45.478;11.060;2023-12-29T11:26:17;101526.78;;;9.69;74.31
76868;BME280;66168;45.478;11.060;2023-12-29T11:28:46;101523.24;;;9.71;74.10
76868;BME280;66168;45.478;11.060;2023-12-29T11:31:18;101513.58;;;9.77;73.94
76868;BME280;66168;45.478;11.060;2023-12-29T11:34:05;101507.61;;;9.85;73.87
76868;BME280;66168;45.478;11.060;2023-12-29T11:36:40;101506.74;;;9.91;73.63
76868;BME280;66168;45.478;11.060;2023-12-29T11:41:43;101503.27;;;9.88;73.90
76868;BME280;66168;45.478;11.060;2023-12-29T11:44:24;101502.37;;;9.79;74.14
76868;BME280;66168;45.478;11.060;2023-12-29T11:46:54;101497.34;;;9.73;74.79
76868;BME280;66168;45.478;11.060;2023-12-29T11:49:20;101497.07;;;9.67;74.83
76868;BME280;66168;45.478;11.060;2023-12-29T11:51:49;101495.29;;;9.61;75.09
76868;BME280;66168;45.478;11.060;2023-12-29T11:54:24;101492.30;;;9.53;75.32
76868;BME280;66168;45.478;11.060;2023-12-29T11:56:54;101489.96;;;9.54;75.36
76868;BME280;66168;45.478;11.060;2023-12-29T11:59:25;101490.17;;;9.53;75.05
76868;BME280;66168;45.478;11.060;2023-12-29T12:01:58;101487.79;;;9.53;75.12
76868;BME280;66168;45.478;11.060;2023-12-29T12:04:40;101482.29;;;9.57;74.96
76868;BME280;66168;45.478;11.060;2023-12-29T12:09:49;101465.36;;;9.65;74.42
76868;BME280;66168;45.478;11.060;2023-12-29T12:12:39;101459.90;;;9.74;74.16
76868;BME280;66168;45.478;11.060;2023-12-29T12:18:05;101450.60;;;9.96;73.39
76868;BME280;66168;45.478;11.060;2023-12-29T12:20:38;101440.28;;;9.98;72.94
76868;BME280;66168;45.478;11.060;2023-12-29T12:23:15;101438.15;;;10.01;73.12
76868;BME280;66168;45.478;11.060;2023-12-29T12:25:45;101435.35;;;10.06;73.08
76868;BME280;66168;45.478;11.060;2023-12-29T12:28:16;101431.52;;;10.15;73.04
76868;BME280;66168;45.478;11.060;2023-12-29T12:30:43;101425.90;;;10.21;72.65
76868;BME280;66168;45.478;11.060;2023-12-29T12:33:12;101420.63;;;10.31;73.22
76868;BME280;66168;45.478;11.060;2023-12-29T12:35:41;101418.22;;;10.43;72.13
76868;BME280;66168;45.478;11.060;2023-12-29T12:38:15;101416.40;;;10.43;71.98
76868;BME280;66168;45.478;11.060;2023-12-29T12:40:47;101413.77;;;10.39;71.99
76868;BME280;66168;45.478;11.060;2023-12-29T12:43:14;101413.14;;;10.39;71.81
76868;BME280;66168;45.478;11.060;2023-12-29T12:45:48;101406.46;;;10.37;71.94
76868;BME280;66168;45.478;11.060;2023-12-29T12:48:41;101405.52;;;10.39;71.99
76868;BME280;66168;45.478;11.060;2023-12-29T12:51:11;101402.48;;;10.40;71.56
76868;BME280;66168;45.478;11.060;2023-12-29T12:53:40;101402.55;;;10.36;71.48
76868;BME280;66168;45.478;11.060;2023-12-29T12:56:08;101404.77;;;10.34;71.56
76868;BME280;66168;45.478;11.060;2023-12-29T12:58:34;101406.37;;;10.32;71.69
76868;BME280;66168;45.478;11.060;2023-12-29T13:01:02;101402.56;;;10.33;71.88
76868;BME280;66168;45.478;11.060;2023-12-29T13:03:31;101394.61;;;10.36;71.61
76868;BME280;66168;45.478;11.060;2023-12-29T13:06:00;101393.57;;;10.39;71.37
76868;BME280;66168;45.478;11.060;2023-12-29T13:08:27;101395.64;;;10.45;71.28
76868;BME280;66168;45.478;11.060;2023-12-29T13:11:04;101394.59;;;10.52;71.25